createdAt,value
2019-02-05T00:00:54.962Z,99181.81
2019-02-05T00:03:26.957Z,99181.09
2019-02-05T00:05:58.953Z,99181.62
2019-02-05T00:08:30.925Z,99171.73
2019-02-05T00:11:04.586Z,99166.71
2019-02-05T00:13:36.643Z,99173.69
2019-02-05T00:16:08.632Z,99164.73
2019-02-05T00:18:40.593Z,99161.84
2019-02-05T00:21:12.610Z,99150.55
2019-02-05T00:23:44.572Z,99142.65
2019-02-05T00:26:16.576Z,99152.50
2019-02-05T00:28:48.764Z,99143.34
2019-02-05T00:31:20.364Z,99140.67
2019-02-05T00:33:52.337Z,99135.28
2019-02-05T00:36:24.377Z,99136.73
2019-02-05T00:38:56.344Z,99134.06
2019-02-05T00:41:41.125Z,99139.25
2019-02-05T00:44:13.091Z,99136.37
2019-02-05T00:46:45.104Z,99132.80
2019-02-05T00:49:17.072Z,99141.42
2019-02-05T00:51:49.631Z,99140.16
2019-02-05T00:54:21.647Z,99149.69
2019-02-05T00:56:55.584Z,99149.33
2019-02-05T00:59:27.564Z,99155.24
2019-02-05T01:01:59.609Z,99157.19
2019-02-05T01:04:31.602Z,99162.22
2019-02-05T01:07:03.724Z,99166.14
2019-02-05T01:09:35.715Z,99165.45
2019-02-05T01:12:27.182Z,99171.38
2019-02-05T01:14:59.183Z,99176.76
2019-02-05T01:17:33.126Z,99168.50
2019-02-05T01:20:07.106Z,99171.17
2019-02-05T01:22:39.099Z,99166.51
2019-02-05T01:25:11.198Z,99162.55
2019-02-05T01:27:43.199Z,99158.97
2019-02-05T01:30:17.551Z,99155.73
2019-02-05T01:32:49.860Z,99149.63
2019-02-05T01:36:02.638Z,99149.63
2019-02-05T01:38:34.642Z,99141.92
2019-02-05T01:41:06.676Z,99135.61
2019-02-05T01:43:38.663Z,99135.25
2019-02-05T01:46:12.533Z,99140.80
2019-02-05T01:49:25.353Z,99140.43
2019-02-05T01:51:57.655Z,99140.99
2019-02-05T01:54:29.699Z,99142.77
2019-02-05T01:57:01.686Z,99137.59
2019-02-05T01:59:33.674Z,99140.83
2019-02-05T02:02:05.765Z,99137.39
2019-02-05T02:04:37.986Z,99122.33
2019-02-05T02:07:09.955Z,99118.19
2019-02-05T02:09:41.960Z,99123.58
2019-02-05T02:12:13.982Z,99111.55
2019-02-05T02:14:45.999Z,99114.38
2019-02-05T02:17:19.883Z,99110.41
2019-02-05T02:19:51.904Z,99107.38
2019-02-05T02:22:23.912Z,99101.27
2019-02-05T02:24:55.912Z,99093.89
2019-02-05T02:27:27.934Z,99091.22
2019-02-05T02:29:59.931Z,99097.48
2019-02-05T02:32:31.908Z,99084.38
2019-02-05T02:35:04.149Z,99089.39
2019-02-05T02:37:36.151Z,99086.31
2019-02-05T02:40:08.312Z,99090.08
2019-02-05T02:42:40.499Z,99095.09
2019-02-05T02:45:12.496Z,99090.59
2019-02-05T02:47:44.500Z,99100.98
2019-02-05T02:50:16.765Z,99106.69
2019-02-05T02:52:49.497Z,99099.88
2019-02-05T02:55:21.450Z,99098.62
2019-02-05T02:57:53.437Z,99097.90
2019-02-05T03:00:25.407Z,99099.83
2019-02-05T03:02:57.404Z,99094.44
2019-02-05T03:05:29.782Z,99093.34
2019-02-05T03:08:01.759Z,99082.92
2019-02-05T03:10:33.742Z,99070.01
2019-02-05T03:13:05.704Z,99068.92
2019-02-05T03:15:37.676Z,99056.55
2019-02-05T03:18:09.715Z,99050.43
2019-02-05T03:20:41.706Z,99048.11
2019-02-05T03:23:13.663Z,99050.94
2019-02-05T03:25:45.662Z,99055.58
2019-02-05T03:28:17.670Z,99063.98
2019-02-05T03:30:49.667Z,99068.67
2019-02-05T03:33:23.886Z,99073.13
2019-02-05T03:35:56.029Z,99079.23
2019-02-05T03:38:28.024Z,99073.50
2019-02-05T03:41:04.386Z,99074.09
2019-02-05T03:43:37.917Z,99080.64
2019-02-05T03:46:12.053Z,99085.11
2019-02-05T03:48:45.625Z,99092.14
2019-02-05T03:51:51.168Z,99084.88
2019-02-05T03:54:56.098Z,99086.66
2019-02-05T03:58:15.592Z,99091.00
2019-02-05T04:01:11.350Z,99109.34
2019-02-05T04:04:04.947Z,99113.22
2019-02-05T04:07:08.157Z,99114.49
2019-02-05T04:10:19.163Z,99104.25
2019-02-05T04:13:11.158Z,99103.89
2019-02-05T04:16:14.500Z,99105.25
2019-02-05T04:19:12.651Z,99100.97
2019-02-05T04:22:29.741Z,99105.22
2019-02-05T04:25:43.810Z,99120.27
2019-02-05T04:28:39.910Z,99114.11
2019-02-05T04:31:42.017Z,99115.11
2019-02-05T04:34:52.964Z,99117.73
2019-02-05T04:37:36.216Z,99114.52
2019-02-05T04:40:49.452Z,99127.03
2019-02-05T04:44:01.010Z,99123.48
2019-02-05T04:47:06.183Z,99126.76
2019-02-05T04:50:18.484Z,99121.85
2019-02-05T04:53:17.685Z,99123.64
2019-02-05T04:56:18.810Z,99129.10
2019-02-05T04:59:17.403Z,99137.63
2019-02-05T05:02:31.184Z,99137.23
2019-02-05T05:06:00.385Z,99140.48
2019-02-05T05:08:49.518Z,99145.91
2019-02-05T05:11:21.501Z,99148.89
2019-02-05T05:13:53.461Z,99148.27
2019-02-05T05:16:25.504Z,99150.05
2019-02-05T05:18:57.493Z,99149.88
2019-02-05T05:21:29.488Z,99152.91
2019-02-05T05:24:01.845Z,99148.65
2019-02-05T05:26:33.843Z,99151.36
2019-02-05T05:29:05.875Z,99154.97
2019-02-05T05:31:37.874Z,99156.04
2019-02-05T05:34:09.813Z,99162.83
2019-02-05T05:36:50.415Z,99153.53
2019-02-05T05:39:22.363Z,99155.17
2019-02-05T05:41:54.363Z,99153.77
2019-02-05T05:44:26.347Z,99160.29
2019-02-05T05:46:58.356Z,99167.65
2019-02-05T05:49:30.324Z,99157.33
2019-02-05T05:52:02.314Z,99161.23
2019-02-05T05:54:34.279Z,99170.27
2019-02-05T05:57:06.260Z,99175.09
2019-02-05T05:59:38.211Z,99178.42
2019-02-05T06:02:10.388Z,99181.38
2019-02-05T06:04:42.381Z,99176.67
2019-02-05T06:07:14.550Z,99177.23
2019-02-05T06:09:46.481Z,99171.63
2019-02-05T06:12:18.954Z,99171.02
2019-02-05T06:14:51.190Z,99178.50
2019-02-05T06:17:23.396Z,99179.78
2019-02-05T06:19:55.377Z,99187.97
2019-02-05T06:22:29.286Z,99190.68
2019-02-05T06:25:01.275Z,99175.67
2019-02-05T06:27:33.560Z,99184.72
2019-02-05T06:30:07.477Z,99186.50
2019-02-05T06:32:39.449Z,99187.18
2019-02-05T06:35:12.467Z,99194.97
2019-02-05T06:37:44.465Z,99199.39
2019-02-05T06:40:17.920Z,99208.05
2019-02-05T06:42:50.004Z,99212.62
2019-02-05T06:45:21.979Z,99204.88
2019-02-05T06:47:53.955Z,99209.55
2019-02-05T06:50:25.964Z,99215.63
2019-02-05T06:52:58.253Z,99216.70
2019-02-05T06:55:30.350Z,99221.31
2019-02-05T06:58:02.305Z,99227.03
2019-02-05T07:00:34.435Z,99235.97
2019-02-05T07:03:06.415Z,99243.08
2019-02-05T07:05:38.894Z,99238.25
2019-02-05T07:08:10.865Z,99242.19
2019-02-05T07:10:42.836Z,99241.69
2019-02-05T07:13:14.897Z,99235.44
2019-02-05T07:15:46.874Z,99239.30
2019-02-05T07:18:19.231Z,99242.98
2019-02-05T07:20:51.227Z,99241.41
2019-02-05T07:23:23.210Z,99252.16
2019-02-05T07:25:55.195Z,99244.34
2019-02-05T07:28:27.132Z,99242.55
2019-02-05T07:30:59.305Z,99244.30
2019-02-05T07:33:31.260Z,99251.97
2019-02-05T07:36:03.276Z,99255.41
2019-02-05T07:38:35.254Z,99254.30
2019-02-05T07:41:07.232Z,99252.97
2019-02-05T07:43:39.188Z,99256.59
2019-02-05T07:46:11.614Z,99252.20
2019-02-05T07:48:43.563Z,99261.75
2019-02-05T07:51:15.552Z,99271.41
2019-02-05T07:53:47.544Z,99270.97
2019-02-05T07:56:19.521Z,99273.48
2019-02-05T07:58:51.529Z,99270.24
2019-02-05T08:01:23.487Z,99270.58
2019-02-05T08:03:55.464Z,99263.84
2019-02-05T08:06:27.430Z,99252.53
2019-02-05T08:08:59.396Z,99259.91
2019-02-05T08:11:31.410Z,99265.98
2019-02-05T08:14:06.209Z,99261.17
2019-02-05T08:16:38.281Z,99245.43
2019-02-05T08:19:10.316Z,99244.73
2019-02-05T08:21:42.367Z,99247.23
2019-02-05T08:24:14.376Z,99251.22
2019-02-05T08:26:46.421Z,99257.33
2019-02-05T08:29:21.711Z,99261.45
2019-02-05T08:31:52.323Z,99252.66
2019-02-05T08:34:24.309Z,99255.50
2019-02-05T08:36:56.324Z,99244.31
2019-02-05T08:39:28.297Z,99246.89
2019-02-05T08:42:02.201Z,99244.91
2019-02-05T08:44:34.195Z,99238.05
2019-02-05T08:47:06.194Z,99230.83
2019-02-05T08:49:38.183Z,99244.64
2019-02-05T08:52:10.173Z,99232.89
2019-02-05T08:54:44.078Z,99241.75
2019-02-05T08:57:16.038Z,99246.00
2019-02-05T08:59:48.079Z,99243.50
2019-02-05T09:02:20.061Z,99241.09
2019-02-05T09:04:54.055Z,99244.56
2019-02-05T09:07:26.520Z,99239.00
2019-02-05T09:09:58.513Z,99240.72
2019-02-05T09:12:30.508Z,99244.62
2019-02-05T09:15:02.742Z,99243.17
2019-02-05T09:17:34.792Z,99249.93
2019-02-05T09:20:09.161Z,99259.50
2019-02-05T09:22:41.140Z,99262.99
2019-02-05T09:25:13.589Z,99262.64
2019-02-05T09:27:45.546Z,99259.57
2019-02-05T09:30:19.835Z,99259.05
2019-02-05T09:32:53.445Z,99258.91
2019-02-05T09:35:25.453Z,99262.08
2019-02-05T09:37:58.003Z,99264.27
2019-02-05T09:40:30.956Z,99267.97
2019-02-05T09:43:02.952Z,99267.35
2019-02-05T09:45:34.948Z,99266.19
2019-02-05T09:48:06.928Z,99259.55
2019-02-05T09:50:44.749Z,99257.89
2019-02-05T09:53:12.797Z,99260.81
2019-02-05T09:55:44.784Z,99255.04
2019-02-05T09:58:16.740Z,99256.21
2019-02-05T10:00:48.733Z,99255.41
2019-02-05T10:03:20.682Z,99256.53
2019-02-05T10:05:52.787Z,99260.64
2019-02-05T10:08:24.756Z,99265.81
2019-02-05T10:10:56.740Z,99263.80
2019-02-05T10:13:28.804Z,99268.39
2019-02-05T10:16:00.764Z,99275.77
2019-02-05T10:18:32.737Z,99275.28
2019-02-05T10:21:05.141Z,99278.23
2019-02-05T10:23:37.094Z,99275.26
2019-02-05T10:26:10.603Z,99275.42
2019-02-05T10:28:42.570Z,99268.02
2019-02-05T10:31:14.546Z,99267.25
2019-02-05T10:33:54.924Z,99264.76
2019-02-05T10:36:23.345Z,99267.63
2019-02-05T10:38:55.620Z,99260.70
2019-02-05T10:41:27.596Z,99261.96
2019-02-05T10:43:59.550Z,99264.59
2019-02-05T10:46:31.537Z,99270.02
2019-02-05T10:49:03.708Z,99261.81
2019-02-05T10:51:35.988Z,99255.66
2019-02-05T10:54:07.997Z,99255.63
2019-02-05T10:56:39.973Z,99253.18
2019-02-05T10:59:11.963Z,99232.58
2019-02-05T11:01:44.028Z,99236.28
2019-02-05T11:04:17.543Z,99233.20
2019-02-05T11:06:49.485Z,99241.39
2019-02-05T11:09:21.554Z,99234.09
2019-02-05T11:11:53.606Z,99227.32
2019-02-05T11:14:25.635Z,99239.05
2019-02-05T11:16:57.573Z,99240.61
2019-02-05T11:19:29.593Z,99235.03
2019-02-05T11:22:01.553Z,99229.70
2019-02-05T11:24:33.564Z,99233.38
2019-02-05T11:27:05.521Z,99223.84
2019-02-05T11:29:37.523Z,99223.55
2019-02-05T11:32:11.092Z,99221.30
2019-02-05T11:34:43.094Z,99221.08
2019-02-05T11:37:15.049Z,99213.09
2019-02-05T11:39:47.026Z,99215.01
2019-02-05T11:42:18.988Z,99214.34
2019-02-05T11:44:51.365Z,99217.70
2019-02-05T11:47:23.337Z,99221.13
2019-02-05T11:49:55.338Z,99221.48
2019-02-05T11:52:27.305Z,99225.86
2019-02-05T11:54:59.342Z,99228.12
2019-02-05T11:57:31.724Z,99228.21
2019-02-05T12:00:05.857Z,99215.32
2019-02-05T12:02:37.848Z,99220.07
2019-02-05T12:05:09.840Z,99220.00
2019-02-05T12:07:41.838Z,99221.05
2019-02-05T12:10:14.160Z,99218.29
2019-02-05T12:12:46.135Z,99218.84
2019-02-05T12:15:18.248Z,99210.69
2019-02-05T12:17:50.318Z,99218.47
2019-02-05T12:20:22.607Z,99216.17
2019-02-05T12:22:54.565Z,99214.10
2019-02-05T12:25:26.969Z,99212.36
2019-02-05T12:27:58.937Z,99212.59
2019-02-05T12:30:43.921Z,99210.42
2019-02-05T12:33:06.513Z,99209.94
2019-02-05T12:35:38.483Z,99210.23
2019-02-05T12:38:10.931Z,99218.94
2019-02-05T12:40:42.887Z,99212.56
2019-02-05T12:43:14.915Z,99208.06
2019-02-05T12:45:46.880Z,99206.28
2019-02-05T12:48:18.864Z,99203.69
2019-02-05T12:50:51.234Z,99207.20
2019-02-05T12:53:23.202Z,99208.48
2019-02-05T12:55:55.200Z,99203.14
2019-02-05T12:58:27.214Z,99199.03
2019-02-05T13:01:01.139Z,99190.63
2019-02-05T13:03:33.082Z,99181.67
2019-02-05T13:06:05.142Z,99183.13
2019-02-05T13:08:37.148Z,99173.83
2019-02-05T13:11:09.130Z,99172.27
2019-02-05T13:13:41.146Z,99158.17
2019-02-05T13:16:13.164Z,99160.94
2019-02-05T13:18:45.155Z,99159.39
2019-02-05T13:21:17.189Z,99172.20
2019-02-05T13:23:49.240Z,99166.56
2019-02-05T13:26:21.205Z,99163.92
2019-02-05T13:28:53.214Z,99169.13
2019-02-05T13:31:25.225Z,99166.91
2019-02-05T13:33:57.220Z,99158.20
2019-02-05T13:36:29.213Z,99160.81
2019-02-05T13:39:01.664Z,99158.34
2019-02-05T13:41:33.660Z,99164.95
2019-02-05T13:44:05.711Z,99163.80
2019-02-05T13:46:39.788Z,99158.62
2019-02-05T13:49:11.770Z,99164.66
2019-02-05T13:51:43.844Z,99164.31
2019-02-05T13:54:16.504Z,99166.91
2019-02-05T13:56:48.491Z,99164.15
2019-02-05T13:59:20.493Z,99158.14
2019-02-05T14:01:52.480Z,99162.46
2019-02-05T14:04:25.582Z,99159.30
2019-02-05T14:06:57.546Z,99159.95
2019-02-05T14:09:29.576Z,99159.98
2019-02-05T14:12:01.594Z,99158.02
2019-02-05T14:14:33.608Z,99161.36
2019-02-05T14:17:05.639Z,99158.59
2019-02-05T14:19:37.642Z,99161.16
2019-02-05T14:22:09.629Z,99160.34
2019-02-05T14:24:41.568Z,99159.13
2019-02-05T14:27:13.560Z,99163.10
2019-02-05T14:29:45.544Z,99162.46
2019-02-05T14:32:17.560Z,99163.45
2019-02-05T14:34:49.597Z,99158.56
2019-02-05T14:37:21.630Z,99166.41
2019-02-05T14:39:53.618Z,99166.02
2019-02-05T14:42:25.656Z,99160.05
2019-02-05T14:44:57.663Z,99158.30
2019-02-05T14:47:29.647Z,99158.06
2019-02-05T14:50:01.681Z,99155.15
2019-02-05T14:52:33.678Z,99156.95
2019-02-05T14:55:05.836Z,99158.08
2019-02-05T14:57:37.860Z,99150.28
2019-02-05T15:00:13.799Z,99150.12
2019-02-05T15:02:45.823Z,99152.25
2019-02-05T15:05:18.425Z,99153.14
2019-02-05T15:07:50.462Z,99158.34
2019-02-05T15:10:22.437Z,99157.39
2019-02-05T15:12:54.435Z,99160.41
2019-02-05T15:15:47.925Z,99153.95
2019-02-05T15:18:21.379Z,99156.75
2019-02-05T15:20:53.384Z,99153.92
2019-02-05T15:23:25.403Z,99158.73
2019-02-05T15:25:57.819Z,99163.61
2019-02-05T15:28:29.875Z,99162.36
2019-02-05T15:31:02.161Z,99171.13
2019-02-05T15:33:44.799Z,99163.69
2019-02-05T15:36:22.023Z,99169.07
2019-02-05T15:38:54.065Z,99165.48
2019-02-05T15:41:26.019Z,99166.97
2019-02-05T15:44:00.641Z,99174.16
2019-02-05T15:46:32.951Z,99175.92
2019-02-05T15:49:04.981Z,99166.16
2019-02-05T15:51:37.003Z,99170.30
2019-02-05T15:54:08.996Z,99159.05
2019-02-05T15:56:41.021Z,99161.36
2019-02-05T15:59:13.191Z,99157.00
2019-02-05T16:01:45.192Z,99164.58
2019-02-05T16:04:17.184Z,99164.42
2019-02-05T16:06:49.204Z,99160.94
2019-02-05T16:09:21.232Z,99165.25
2019-02-05T16:11:53.553Z,99163.66
2019-02-05T16:14:25.564Z,99168.88
2019-02-05T16:16:57.592Z,99173.36
2019-02-05T16:19:29.792Z,99177.42
2019-02-05T16:22:02.354Z,99174.27
2019-02-05T16:24:34.734Z,99173.44
2019-02-05T16:27:06.750Z,99177.98
2019-02-05T16:29:38.772Z,99180.73
2019-02-05T16:32:17.324Z,99181.39
2019-02-05T16:34:44.670Z,99179.92
2019-02-05T16:37:16.683Z,99189.42
2019-02-05T16:39:48.689Z,99186.31
2019-02-05T16:42:20.766Z,99197.06
2019-02-05T16:44:52.757Z,99194.52
2019-02-05T16:47:24.779Z,99188.86
2019-02-05T16:49:56.806Z,99194.35
2019-02-05T16:52:28.833Z,99197.69
2019-02-05T16:55:00.814Z,99200.73
2019-02-05T16:57:32.826Z,99201.30
2019-02-05T17:00:11.129Z,99202.98
2019-02-05T17:02:43.162Z,99205.73
2019-02-05T17:05:16.013Z,99208.49
2019-02-05T17:07:48.040Z,99218.34
2019-02-05T17:10:20.146Z,99220.91
2019-02-05T17:12:52.430Z,99227.95
2019-02-05T17:15:24.434Z,99228.18
2019-02-05T17:17:56.542Z,99229.14
2019-02-05T17:20:29.180Z,99230.66
2019-02-05T17:23:01.255Z,99231.43
2019-02-05T17:25:35.811Z,99241.24
2019-02-05T17:28:07.316Z,99236.80
2019-02-05T17:30:39.550Z,99234.49
2019-02-05T17:33:11.596Z,99235.07
2019-02-05T17:35:43.633Z,99228.40
2019-02-05T17:38:15.800Z,99225.36
2019-02-05T17:40:47.847Z,99229.69
2019-02-05T17:43:19.917Z,99232.23
2019-02-05T17:45:52.432Z,99228.81
2019-02-05T17:48:24.505Z,99231.88
2019-02-05T17:50:56.637Z,99234.62
2019-02-05T17:53:28.719Z,99237.91
2019-02-05T17:56:00.754Z,99238.45
2019-02-05T17:58:32.736Z,99233.79
2019-02-05T18:01:10.254Z,99241.88
2019-02-05T18:03:42.270Z,99241.70
2019-02-05T18:06:14.344Z,99240.82
2019-02-05T18:08:46.371Z,99246.27
2019-02-05T18:11:18.412Z,99247.31
2019-02-05T18:13:50.440Z,99248.09
2019-02-05T18:16:22.461Z,99252.56
2019-02-05T18:18:54.564Z,99257.09
2019-02-05T18:21:27.557Z,99260.33
2019-02-05T18:23:59.605Z,99257.46
2019-02-05T18:26:31.699Z,99265.19
2019-02-05T18:29:04.279Z,99265.22
2019-02-05T18:31:36.357Z,99266.83
2019-02-05T18:34:08.384Z,99264.86
2019-02-05T18:36:40.906Z,99261.29
2019-02-05T18:39:12.963Z,99258.76
2019-02-05T18:41:45.098Z,99264.67
2019-02-05T18:44:17.189Z,99268.66
2019-02-05T18:46:49.269Z,99269.91
2019-02-05T18:49:21.666Z,99265.78
2019-02-05T18:51:53.753Z,99273.68
2019-02-05T18:54:25.782Z,99273.50
2019-02-05T18:56:57.990Z,99269.54
2019-02-05T18:59:31.947Z,99274.39
2019-02-05T19:02:04.657Z,99274.92
2019-02-05T19:04:36.644Z,99277.11
2019-02-05T19:07:08.744Z,99272.95
2019-02-05T19:09:40.802Z,99271.89
2019-02-05T19:12:12.852Z,99266.31
2019-02-05T19:14:45.021Z,99272.59
2019-02-05T19:17:17.085Z,99272.77
2019-02-05T19:19:49.188Z,99269.16
2019-02-05T19:22:21.145Z,99269.36
2019-02-05T19:24:57.689Z,99270.05
2019-02-05T19:27:29.744Z,99276.34
2019-02-05T19:30:01.880Z,99281.05
2019-02-05T19:32:34.020Z,99286.61
2019-02-05T19:35:06.630Z,99277.41
2019-02-05T19:37:38.783Z,99288.73
2019-02-05T19:40:10.873Z,99290.15
2019-02-05T19:42:42.953Z,99286.94
2019-02-05T19:45:33.195Z,99283.34
2019-02-05T19:48:07.042Z,99281.34
2019-02-05T19:50:39.344Z,99285.84
2019-02-05T19:53:11.503Z,99286.38
2019-02-05T19:55:44.388Z,99288.16
2019-02-05T19:58:16.630Z,99293.92
2019-02-05T20:00:48.761Z,99289.95
2019-02-05T20:03:21.091Z,99290.84
2019-02-05T20:05:53.263Z,99289.95
2019-02-05T20:08:26.905Z,99289.05
2019-02-05T20:10:59.214Z,99285.28
2019-02-05T20:13:39.897Z,99285.65
2019-02-05T20:16:05.360Z,99278.11
2019-02-05T20:18:37.385Z,99280.59
2019-02-05T20:21:09.553Z,99268.38
2019-02-05T20:23:41.544Z,99268.54
2019-02-05T20:26:13.640Z,99263.84
2019-02-05T20:28:45.677Z,99256.83
2019-02-05T20:31:17.814Z,99259.50
2019-02-05T20:33:50.360Z,99260.59
2019-02-05T20:36:22.543Z,99241.59
2019-02-05T20:38:54.715Z,99242.80
2019-02-05T20:41:26.805Z,99247.67
2019-02-05T20:44:00.297Z,99254.00
2019-02-05T20:46:32.405Z,99254.89
2019-02-05T20:49:04.484Z,99267.41
2019-02-05T20:51:36.785Z,99264.53
2019-02-05T20:54:09.263Z,99261.33
2019-02-05T20:56:41.370Z,99265.98
2019-02-05T20:59:13.484Z,99258.12
2019-02-05T21:01:45.629Z,99261.49
2019-02-05T21:04:18.835Z,99264.72
2019-02-05T21:06:51.281Z,99263.99
2019-02-05T21:09:23.436Z,99269.17
2019-02-05T21:11:55.548Z,99268.76
2019-02-05T21:14:27.665Z,99262.47
2019-02-05T21:16:59.681Z,99264.23
2019-02-05T21:19:32.191Z,99268.38
2019-02-05T21:22:04.415Z,99271.21
2019-02-05T21:24:36.567Z,99276.59
2019-02-05T21:27:08.667Z,99286.77
2019-02-05T21:29:43.445Z,99285.30
2019-02-05T21:32:15.801Z,99286.20
2019-02-05T21:34:47.814Z,99290.69
2019-02-05T21:37:19.988Z,99289.59
2019-02-05T21:40:02.119Z,99290.98
2019-02-05T21:42:26.268Z,99295.83
2019-02-05T21:44:58.715Z,99293.09
2019-02-05T21:47:30.784Z,99300.63
2019-02-05T21:50:05.358Z,99308.53
2019-02-05T21:52:37.509Z,99311.05
2019-02-05T21:55:10.415Z,99316.20
2019-02-05T21:57:42.728Z,99310.68
2019-02-05T22:00:19.977Z,99307.83
2019-02-05T22:02:52.418Z,99306.74
2019-02-05T22:05:25.209Z,99313.81
2019-02-05T22:07:57.370Z,99308.44
2019-02-05T22:10:29.441Z,99313.81
2019-02-05T22:13:03.314Z,99311.81
2019-02-05T22:15:36.890Z,99306.44
2019-02-05T22:18:08.980Z,99303.20
2019-02-05T22:20:41.236Z,99297.86
2019-02-05T22:23:13.567Z,99302.16
2019-02-05T22:25:47.373Z,99298.80
2019-02-05T22:28:20.628Z,99296.33
2019-02-05T22:30:54.132Z,99293.42
2019-02-05T22:33:28.048Z,99289.44
2019-02-05T22:36:00.072Z,99286.05
2019-02-05T22:38:32.280Z,99292.05
2019-02-05T22:41:04.355Z,99280.95
2019-02-05T22:43:36.412Z,99283.03
2019-02-05T22:46:08.451Z,99283.61
2019-02-05T22:48:41.049Z,99278.00
2019-02-05T22:51:13.184Z,99280.66
2019-02-05T22:53:45.197Z,99280.20
2019-02-05T22:56:17.239Z,99273.42
2019-02-05T22:58:49.412Z,99267.69
2019-02-05T23:01:51.389Z,99262.82
2019-02-05T23:05:23.715Z,99264.80
2019-02-05T23:07:55.842Z,99258.29
2019-02-05T23:11:04.998Z,99262.19
2019-02-05T23:13:37.307Z,99261.10
2019-02-05T23:16:09.345Z,99264.16
2019-02-05T23:18:41.443Z,99265.86
2019-02-05T23:21:13.439Z,99261.31
2019-02-05T23:23:45.442Z,99255.55
2019-02-05T23:26:19.388Z,99252.02
2019-02-05T23:28:51.400Z,99246.61
2019-02-05T23:31:23.401Z,99245.87
2019-02-05T23:33:56.526Z,99240.97
2019-02-05T23:36:28.510Z,99237.92
2019-02-05T23:39:00.863Z,99236.57
2019-02-05T23:41:33.971Z,99236.19
2019-02-05T23:44:06.280Z,99225.64
2019-02-05T23:46:38.272Z,99227.26
2019-02-05T23:49:10.502Z,99226.86
2019-02-05T23:51:42.566Z,99227.88
2019-02-05T23:54:14.581Z,99227.55
2019-02-05T23:56:46.582Z,99226.20
2019-02-05T23:59:18.598Z,99221.88
